Airfield :
LOGIN :

Register | Disclaimer

   EN    FR    IT 

 










Legend :    VFR   Marginal VFR   IFR   Intensive IFR   Very Intensive IFR
Visi :
Ceiling :
>= 8 km
>= 3000ft
5 to 8 km
1000 to 3000 ft
1500m to 5 km
500 to 1000 ft
800 to 1500m
200 to 500 ft
< 800m
< 200 ft
Symbols :   Thunderstorms  Fog  Heavy snow  Heavy precipitations  Wind > 20 kt
SIGMETs :     Misc.  Thunderstorms  Icing  Turbulence  Mountain Waves  Volcanic Ashes






- Airport Elevation : 17 ft
- IATA code : CPH


EKCH - København - Kastrup (Copenhagen)

CURRENT METAR :
  • 270620Z AUTO 29006KT 9999 FEW100/// 15/11 Q1032 NOSIG

EXPIRED METARs :
  • 270550Z AUTO 29005KT 9999 NCD 14/11 Q1032 NOSIG
  • 270520Z AUTO 28006KT 9999 NCD 13/10 Q1032 NOSIG
  • 270450Z AUTO 27006KT 9999 BKN100/// 12/10 Q1032 NOSIG
  • 270420Z AUTO 24006KT 220V280 9999 SCT100/// 11/10 Q1032 NOSIG
  • 270350Z AUTO 24006KT 9000 FEW110/// 10/09 Q1032 NOSIG

TAF TAF EKCH
Valid from the 27 at 06:00 until the 28 at 06:00 UTC


270506Z 2706/2806 26004KT 9999 FEW040
BECMG 2710/2712 32014KT



MET'MAP, your aeronautical weather chart ! - Copyright ORBIFLY December 2007 - Disclaimer

ORBIFLY MET'MAP TEAM :

Programming & Development : Alexandra Zaïnal
Concept & original design : Baudouin d'Aumeries
Assistance for programming : Marc-Olivier Méhu
Technical & hardware support : Manuel Goepfert

Contact : metmap@orbifly.com




SOURCES & CREDITS :

   NOAA